Time;durP1;ratioP1;P1;durP2;ratioP2;P2;SDS_P1;SDS_P2;PMS_P1;PMS_P2;Temp;Humidity;BMP_temperature;BMP_pressure;BME280_temperature;BME280_humidity;BME280_pressure;Samples;Min_cycle;Max_cycle;Signal;HPM_P1;HPM_P2
2022/07/23 00:00:29;;;;;;;0.00;0.00;;;15.60;79.30;;;;;;5049480;28;20052;-68
2022/07/23 00:02:55;;;;;;;0.00;0.00;;;15.60;79.00;;;;;;5048879;28;20111;-68
2022/07/23 00:05:20;;;;;;;0.00;0.00;;;15.60;79.00;;;;;;5048570;28;20068;-68
2022/07/23 00:07:46;;;;;;;0.00;0.00;;;15.60;79.00;;;;;;5048360;28;20134;-68
2022/07/23 00:10:12;;;;;;;0.00;0.00;;;15.60;78.80;;;;;;5049468;28;20113;-68
2022/07/23 00:12:38;;;;;;;0.00;0.00;;;15.60;79.10;;;;;;5048562;28;20044;-68
2022/07/23 00:15:05;;;;;;;0.00;0.00;;;15.60;79.40;;;;;;5041000;28;20036;-68
2022/07/23 00:17:31;;;;;;;0.00;0.00;;;15.60;79.50;;;;;;5048666;28;20049;-68
2022/07/23 00:19:57;;;;;;;0.00;0.00;;;15.70;79.20;;;;;;5048960;28;20048;-68
2022/07/23 00:22:23;;;;;;;0.00;0.00;;;15.70;79.20;;;;;;5049177;28;20516;-68
2022/07/23 00:24:49;;;;;;;0.00;0.00;;;15.80;79.30;;;;;;5048565;28;20087;-69
2022/07/23 00:27:14;;;;;;;0.00;0.00;;;15.80;79.80;;;;;;5048031;28;20041;-68
2022/07/23 00:29:40;;;;;;;0.00;0.00;;;15.80;79.80;;;;;;5049296;28;20387;-69
2022/07/23 00:32:05;;;;;;;0.00;0.00;;;15.90;79.60;;;;;;5049194;28;20076;-68
2022/07/23 00:34:31;;;;;;;0.00;0.00;;;15.90;79.80;;;;;;5048746;28;20037;-68
2022/07/23 00:36:57;;;;;;;0.00;0.00;;;15.90;79.60;;;;;;5048454;28;20029;-69
2022/07/23 00:39:22;;;;;;;0.00;0.00;;;15.90;79.40;;;;;;5048349;28;20037;-68
2022/07/23 00:41:49;;;;;;;0.00;0.00;;;15.90;79.30;;;;;;5048757;28;20091;-68
2022/07/23 00:44:19;;;;;;;0.00;0.00;;;15.80;79.20;;;;;;5049113;28;20049;-68
2022/07/23 00:47:04;;;;;;;0.00;0.00;;;15.80;79.30;;;;;;5048909;28;20091;-68
2022/07/23 00:49:30;;;;;;;0.00;0.00;;;15.80;79.50;;;;;;5014306;28;20059;-68
2022/07/23 00:51:56;;;;;;;0.00;0.00;;;15.80;79.40;;;;;;5048192;28;20120;-68
2022/07/23 00:54:25;;;;;;;0.00;0.00;;;15.80;79.40;;;;;;5048400;28;20072;-68
2022/07/23 00:56:51;;;;;;;0.00;0.00;;;15.80;79.40;;;;;;5030876;28;20049;-68
2022/07/23 00:59:17;;;;;;;0.00;0.00;;;15.80;79.30;;;;;;5030601;28;20099;-68
2022/07/23 01:01:44;;;;;;;0.00;0.00;;;15.80;79.30;;;;;;5048836;28;20843;-68
2022/07/23 01:04:10;;;;;;;0.00;0.00;;;15.80;79.40;;;;;;5049361;28;20063;-68
2022/07/23 01:06:38;;;;;;;0.00;0.00;;;15.80;79.30;;;;;;5031403;28;20081;-68
2022/07/23 01:09:05;;;;;;;0.00;0.00;;;15.80;79.20;;;;;;5048645;28;20108;-68
2022/07/23 01:11:32;;;;;;;0.00;0.00;;;15.80;79.20;;;;;;5048806;28;20045;-68
2022/07/23 01:13:58;;;;;;;0.00;0.00;;;15.70;79.40;;;;;;5049005;28;20063;-68
2022/07/23 01:16:24;;;;;;;0.00;0.00;;;15.70;79.70;;;;;;5048951;28;20472;-68
2022/07/23 01:18:49;;;;;;;0.00;0.00;;;15.70;79.50;;;;;;5030479;28;20041;-68
2022/07/23 01:21:18;;;;;;;0.00;0.00;;;15.70;79.40;;;;;;5026795;28;20069;-68
2022/07/23 01:23:44;;;;;;;0.00;0.00;;;15.60;79.50;;;;;;5047536;28;20037;-68
2022/07/23 01:26:09;;;;;;;0.00;0.00;;;15.60;79.60;;;;;;5030705;28;20128;-68
2022/07/23 01:28:35;;;;;;;0.00;0.00;;;15.60;79.70;;;;;;5047179;28;20033;-68
2022/07/23 01:31:00;;;;;;;0.00;0.00;;;15.60;79.60;;;;;;5045580;28;20033;-68
2022/07/23 01:33:26;;;;;;;0.00;0.00;;;15.60;79.60;;;;;;5030209;28;20047;-68
2022/07/23 01:35:52;;;;;;;0.00;0.00;;;15.60;80.00;;;;;;5031302;28;20053;-68
2022/07/23 01:38:17;;;;;;;0.00;0.00;;;15.60;80.00;;;;;;5030856;28;20588;-68
2022/07/23 01:40:43;;;;;;;0.00;0.00;;;15.60;79.90;;;;;;5052137;28;20119;-68
2022/07/23 01:43:08;;;;;;;0.00;0.00;;;15.50;79.90;;;;;;5052017;28;20089;-68
2022/07/23 01:45:34;;;;;;;0.00;0.00;;;15.50;79.90;;;;;;5052112;28;20124;-69
2022/07/23 01:47:59;;;;;;;0.00;0.00;;;15.50;79.80;;;;;;5051348;28;20033;-68
2022/07/23 01:50:25;;;;;;;0.00;0.00;;;15.40;80.10;;;;;;5052140;28;20045;-69
2022/07/23 01:52:51;;;;;;;0.00;0.00;;;15.40;80.20;;;;;;5052081;28;20049;-68
2022/07/23 01:55:16;;;;;;;0.00;0.00;;;15.40;80.50;;;;;;5052014;28;20129;-68
2022/07/23 01:57:42;;;;;;;0.00;0.00;;;15.30;80.50;;;;;;5034039;28;20049;-68
2022/07/23 02:00:08;;;;;;;0.00;0.00;;;15.30;80.50;;;;;;5051984;28;20054;-69
2022/07/23 02:02:34;;;;;;;0.00;0.00;;;15.30;80.30;;;;;;5051729;28;20036;-68
2022/07/23 02:04:59;;;;;;;0.00;0.00;;;15.30;80.10;;;;;;5051598;28;20045;-68
2022/07/23 02:07:25;;;;;;;0.00;0.00;;;15.30;80.20;;;;;;5051204;28;20049;-68
2022/07/23 02:09:50;;;;;;;0.00;0.00;;;15.20;80.50;;;;;;5050763;28;20132;-69
2022/07/23 02:12:16;;;;;;;0.00;0.00;;;15.20;80.60;;;;;;5033264;28;20076;-68
2022/07/23 02:14:41;;;;;;;0.00;0.00;;;15.10;80.50;;;;;;5051168;28;20088;-68
2022/07/23 02:17:07;;;;;;;0.00;0.00;;;15.10;80.40;;;;;;5051101;28;20129;-68
2022/07/23 02:19:33;;;;;;;0.00;0.00;;;15.10;80.50;;;;;;5051294;28;20694;-68
2022/07/23 02:21:58;;;;;;;0.00;0.00;;;15.10;80.70;;;;;;5050683;28;20041;-68
2022/07/23 02:24:24;;;;;;;0.00;0.00;;;15.00;81.20;;;;;;5051291;28;20053;-69
2022/07/23 02:26:49;;;;;;;0.00;0.00;;;15.00;81.40;;;;;;5050784;28;20036;-68
2022/07/23 02:29:15;;;;;;;0.00;0.00;;;15.00;81.20;;;;;;5050060;28;20452;-69
2022/07/23 02:31:41;;;;;;;0.00;0.00;;;14.90;81.10;;;;;;5033180;28;20048;-68
2022/07/23 02:34:07;;;;;;;0.00;0.00;;;15.00;81.30;;;;;;5050902;28;20118;-68
2022/07/23 02:36:32;;;;;;;0.00;0.00;;;14.90;81.30;;;;;;5050784;28;20080;-68
2022/07/23 02:38:58;;;;;;;0.00;0.00;;;14.90;81.50;;;;;;5050692;28;20120;-68
2022/07/23 02:41:24;;;;;;;0.00;0.00;;;14.90;81.70;;;;;;5050729;28;20049;-68
2022/07/23 02:43:49;;;;;;;0.00;0.00;;;14.80;82.20;;;;;;5050435;28;20486;-68
2022/07/23 02:46:15;;;;;;;0.00;0.00;;;14.80;82.30;;;;;;5032969;28;20128;-68
2022/07/23 02:48:41;;;;;;;0.00;0.00;;;14.80;82.20;;;;;;5016354;28;20045;-68
2022/07/23 02:51:06;;;;;;;0.00;0.00;;;14.80;82.00;;;;;;5060256;28;20044;-68
2022/07/23 02:53:32;;;;;;;0.00;0.00;;;14.90;81.80;;;;;;5050607;28;20055;-68
2022/07/23 02:55:57;;;;;;;0.00;0.00;;;14.90;81.90;;;;;;5049373;28;20041;-68
2022/07/23 02:58:24;;;;;;;0.00;0.00;;;14.80;81.70;;;;;;5032581;28;20048;-68
2022/07/23 03:00:50;;;;;;;0.10;0.10;;;14.80;81.50;;;;;;5032638;28;20049;-68
2022/07/23 03:03:16;;;;;;;0.00;0.00;;;14.80;81.50;;;;;;5050319;28;20075;-68
2022/07/23 03:05:41;;;;;;;0.00;0.00;;;14.80;81.40;;;;;;5050261;28;20128;-68
2022/07/23 03:08:07;;;;;;;0.00;0.00;;;14.80;81.40;;;;;;5050779;28;20133;-68
2022/07/23 03:10:32;;;;;;;0.00;0.00;;;14.80;81.30;;;;;;5031947;28;20049;-68
2022/07/23 03:12:58;;;;;;;0.00;0.00;;;14.80;81.40;;;;;;5050480;28;20044;-68
2022/07/23 03:15:24;;;;;;;0.00;0.00;;;14.80;81.40;;;;;;5031895;28;20060;-67
2022/07/23 03:17:49;;;;;;;0.00;0.00;;;14.80;81.50;;;;;;5032507;28;20045;-68
2022/07/23 03:20:15;;;;;;;0.00;0.00;;;14.80;81.50;;;;;;5050041;28;20505;-67
2022/07/23 03:22:41;;;;;;;0.00;0.00;;;14.80;81.40;;;;;;5050552;28;20075;-67
2022/07/23 03:25:07;;;;;;;0.00;0.00;;;14.80;81.50;;;;;;5049542;28;20040;-67
2022/07/23 03:27:33;;;;;;;0.00;0.00;;;14.80;81.60;;;;;;5049283;28;20049;-68
2022/07/23 03:29:59;;;;;;;0.00;0.00;;;14.80;81.40;;;;;;5049121;28;20033;-68
2022/07/23 03:32:25;;;;;;;0.00;0.00;;;14.80;81.20;;;;;;5049610;28;20037;-68
2022/07/23 03:34:51;;;;;;;0.00;0.00;;;14.80;81.10;;;;;;5048505;28;20036;-67
2022/07/23 03:37:17;;;;;;;0.05;0.05;;;14.80;81.00;;;;;;5049572;28;20068;-67
2022/07/23 03:39:43;;;;;;;0.00;0.00;;;14.80;81.10;;;;;;5049065;28;20061;-68
2022/07/23 03:42:09;;;;;;;0.00;0.00;;;14.70;81.40;;;;;;5050337;28;20482;-67
2022/07/23 03:44:36;;;;;;;0.00;0.00;;;14.70;81.30;;;;;;5050094;28;20049;-68
2022/07/23 03:47:05;;;;;;;0.00;0.00;;;14.70;81.20;;;;;;5049369;28;20514;-68
2022/07/23 03:49:31;;;;;;;0.00;0.00;;;14.70;81.10;;;;;;5048733;28;20133;-68
2022/07/23 03:51:58;;;;;;;0.00;0.00;;;14.70;81.00;;;;;;5062647;28;20051;-68
2022/07/23 03:54:23;;;;;;;0.00;0.00;;;14.80;81.00;;;;;;5055391;28;20049;-68
2022/07/23 03:56:49;;;;;;;0.00;0.00;;;14.80;81.00;;;;;;5048905;28;20052;-68
2022/07/23 03:59:14;;;;;;;0.00;0.00;;;14.70;80.90;;;;;;5048118;28;20052;-68
2022/07/23 04:01:40;;;;;;;0.00;0.00;;;14.70;81.20;;;;;;5046097;28;20045;-68
2022/07/23 04:04:08;;;;;;;0.00;0.00;;;14.70;81.20;;;;;;5056411;28;20033;-68
2022/07/23 04:06:34;;;;;;;0.00;0.00;;;14.70;81.30;;;;;;5050396;28;20049;-68
2022/07/23 04:08:59;;;;;;;0.00;0.00;;;14.60;81.50;;;;;;5050101;28;20414;-67
2022/07/23 04:11:25;;;;;;;0.00;0.00;;;14.60;81.80;;;;;;5050398;28;20141;-68
2022/07/23 04:13:50;;;;;;;0.00;0.00;;;14.60;81.80;;;;;;5049308;28;20040;-68
2022/07/23 04:16:16;;;;;;;0.00;0.00;;;14.60;81.70;;;;;;5049152;28;20041;-68
2022/07/23 04:18:41;;;;;;;0.00;0.00;;;14.60;81.60;;;;;;5048805;28;20033;-68
2022/07/23 04:21:07;;;;;;;0.00;0.00;;;14.60;81.50;;;;;;5049421;28;20037;-68
2022/07/23 04:23:33;;;;;;;0.00;0.00;;;14.60;81.50;;;;;;5048915;28;20095;-67
2022/07/23 04:25:58;;;;;;;0.00;0.00;;;14.60;81.50;;;;;;5049107;28;20782;-67
2022/07/23 04:28:24;;;;;;;0.00;0.00;;;14.60;81.90;;;;;;5048682;28;20037;-68
2022/07/23 04:30:49;;;;;;;0.00;0.00;;;14.60;81.90;;;;;;5049464;28;20490;-67
2022/07/23 04:33:15;;;;;;;0.00;0.00;;;14.70;81.90;;;;;;5048618;28;20048;-68
2022/07/23 04:35:41;;;;;;;0.00;0.00;;;14.60;81.90;;;;;;5048575;28;20037;-68
2022/07/23 04:38:06;;;;;;;0.00;0.00;;;14.60;82.00;;;;;;5048256;28;21824;-68
2022/07/23 04:40:32;;;;;;;0.05;0.05;;;14.60;82.00;;;;;;5048279;28;20059;-67
2022/07/23 04:42:58;;;;;;;0.00;0.00;;;14.60;82.10;;;;;;5048850;28;20115;-67
2022/07/23 04:45:24;;;;;;;0.00;0.00;;;14.60;82.10;;;;;;5048981;28;20053;-67
2022/07/23 04:47:50;;;;;;;0.00;0.00;;;14.60;82.30;;;;;;5048230;28;20049;-67
2022/07/23 04:50:21;;;;;;;0.00;0.00;;;14.60;82.30;;;;;;5048464;28;20048;-67
2022/07/23 04:52:49;;;;;;;0.00;0.00;;;14.60;82.10;;;;;;5048252;28;20041;-67
2022/07/23 04:55:15;;;;;;;0.00;0.00;;;14.60;82.10;;;;;;5030686;28;20051;-68
2022/07/23 04:57:41;;;;;;;0.00;0.00;;;14.60;82.20;;;;;;5048113;28;20033;-67
2022/07/23 05:00:08;;;;;;;0.00;0.00;;;14.60;82.20;;;;;;5048442;28;20037;-67
2022/07/23 05:02:33;;;;;;;0.00;0.00;;;14.60;82.40;;;;;;5048231;28;20037;-67
2022/07/23 05:04:59;;;;;;;0.00;0.00;;;14.60;82.50;;;;;;5048357;28;20086;-69
2022/07/23 05:07:24;;;;;;;0.00;0.00;;;14.60;82.80;;;;;;5048507;28;20033;-72
2022/07/23 05:09:50;;;;;;;0.00;0.00;;;14.60;82.80;;;;;;5013761;28;20041;-68
2022/07/23 05:12:16;;;;;;;0.08;0.08;;;14.60;82.80;;;;;;5030632;28;20053;-68
2022/07/23 05:14:41;;;;;;;0.00;0.00;;;14.60;82.90;;;;;;5032829;28;20130;-67
2022/07/23 05:17:07;;;;;;;0.03;0.03;;;14.60;82.80;;;;;;5049987;28;20049;-69
2022/07/23 05:19:34;;;;;;;0.00;0.00;;;14.70;82.70;;;;;;5050960;28;20137;-68
2022/07/23 05:22:00;;;;;;;0.00;0.00;;;14.60;82.90;;;;;;5052137;28;20049;-68
2022/07/23 05:24:25;;;;;;;0.00;0.00;;;14.70;82.90;;;;;;5036576;28;20057;-68
2022/07/23 05:26:51;;;;;;;0.00;0.00;;;14.70;82.90;;;;;;5034479;28;20095;-70
2022/07/23 05:29:17;;;;;;;0.00;0.00;;;14.80;82.90;;;;;;5051213;28;20053;-70
2022/07/23 05:31:42;;;;;;;0.00;0.00;;;14.80;82.80;;;;;;5052099;28;20045;-67
2022/07/23 05:34:08;;;;;;;0.00;0.00;;;14.90;83.10;;;;;;5050743;28;20476;-68
2022/07/23 05:36:34;;;;;;;0.00;0.00;;;15.00;83.00;;;;;;5033458;28;20045;-68
2022/07/23 05:38:59;;;;;;;0.00;0.00;;;15.00;83.10;;;;;;5051117;28;20571;-68
2022/07/23 05:41:25;;;;;;;0.00;0.00;;;15.00;83.10;;;;;;5051371;28;20059;-68
2022/07/23 05:43:50;;;;;;;0.00;0.00;;;15.10;83.00;;;;;;5051346;28;20095;-68
2022/07/23 05:46:16;;;;;;;0.00;0.00;;;15.10;82.90;;;;;;5033511;28;20045;-68
2022/07/23 05:48:42;;;;;;;0.00;0.00;;;15.20;82.70;;;;;;5051116;28;20045;-68
2022/07/23 05:51:08;;;;;;;0.00;0.00;;;15.20;82.50;;;;;;5043666;28;20413;-68
2022/07/23 05:53:34;;;;;;;0.00;0.00;;;15.30;82.20;;;;;;5050975;28;20132;-68
2022/07/23 05:56:01;;;;;;;0.00;0.00;;;15.40;82.10;;;;;;5051310;28;20116;-68
2022/07/23 05:58:27;;;;;;;0.00;0.00;;;15.40;82.00;;;;;;5046137;28;20049;-68
2022/07/23 06:00:52;;;;;;;0.00;0.00;;;15.40;82.10;;;;;;5051343;28;20123;-68
2022/07/23 06:03:18;;;;;;;0.00;0.00;;;15.50;82.10;;;;;;5050461;28;20068;-67
2022/07/23 06:05:44;;;;;;;0.00;0.00;;;15.60;82.30;;;;;;5051466;28;20448;-68
2022/07/23 06:08:09;;;;;;;0.00;0.00;;;15.60;82.90;;;;;;5050342;28;20049;-68
2022/07/23 06:10:35;;;;;;;0.00;0.00;;;15.60;82.30;;;;;;5051288;28;20055;-67
2022/07/23 06:13:00;;;;;;;0.00;0.00;;;15.70;81.40;;;;;;5050443;28;20464;-67
2022/07/23 06:15:26;;;;;;;0.00;0.00;;;15.70;81.10;;;;;;5050512;28;20128;-67
2022/07/23 06:17:52;;;;;;;0.00;0.00;;;15.80;81.10;;;;;;5050076;28;20127;-67
2022/07/23 06:20:17;;;;;;;0.08;0.08;;;15.80;81.00;;;;;;5050363;28;20072;-67
2022/07/23 06:22:43;;;;;;;0.00;0.00;;;15.90;80.40;;;;;;5051035;28;20064;-67
2022/07/23 06:25:09;;;;;;;0.00;0.00;;;16.00;79.40;;;;;;5048731;28;20044;-67
2022/07/23 06:27:34;;;;;;;0.00;0.00;;;16.00;79.30;;;;;;5050330;28;20064;-67
2022/07/23 06:30:00;;;;;;;0.00;0.00;;;16.00;79.10;;;;;;5050416;28;20029;-67
2022/07/23 06:32:26;;;;;;;0.00;0.00;;;16.00;78.20;;;;;;5050468;28;20743;-67
2022/07/23 06:34:51;;;;;;;0.00;0.00;;;16.10;78.50;;;;;;5050171;28;20128;-67
2022/07/23 06:37:17;;;;;;;0.00;0.00;;;16.10;78.20;;;;;;5048454;28;20482;-67
2022/07/23 06:39:43;;;;;;;0.00;0.00;;;16.10;77.40;;;;;;5049947;28;20049;-67
2022/07/23 06:42:10;;;;;;;0.65;0.65;;;16.20;77.40;;;;;;5049916;28;20102;-67
2022/07/23 06:44:35;;;;;;;0.00;0.00;;;16.20;76.90;;;;;;5031502;28;20493;-67
2022/07/23 06:47:01;;;;;;;0.00;0.00;;;16.30;76.60;;;;;;5049583;28;20083;-67
2022/07/23 06:49:27;;;;;;;0.00;0.00;;;16.40;76.60;;;;;;5050289;28;20552;-67
2022/07/23 06:51:52;;;;;;;0.03;0.03;;;16.40;76.10;;;;;;5050965;28;20057;-67
2022/07/23 06:54:18;;;;;;;0.00;0.00;;;16.50;75.00;;;;;;5048075;28;20139;-67
2022/07/23 06:56:44;;;;;;;0.00;0.00;;;16.60;74.90;;;;;;5030506;28;20052;-66
2022/07/23 06:59:09;;;;;;;0.00;0.00;;;16.70;73.70;;;;;;5048535;28;20040;-67
2022/07/23 07:01:35;;;;;;;0.00;0.00;;;16.80;72.70;;;;;;5048903;28;20040;-67
2022/07/23 07:04:00;;;;;;;0.00;0.00;;;16.90;73.40;;;;;;5050876;28;20178;-67
2022/07/23 07:06:26;;;;;;;0.63;0.52;;;16.90;72.30;;;;;;5032410;28;20095;-67
2022/07/23 07:08:51;;;;;;;0.00;0.00;;;17.00;72.00;;;;;;5050385;28;20072;-68
2022/07/23 07:11:17;;;;;;;0.00;0.00;;;17.00;72.20;;;;;;5045759;28;20129;-67
2022/07/23 07:13:43;;;;;;;0.00;0.00;;;17.10;70.90;;;;;;5049797;28;20039;-66
2022/07/23 07:16:08;;;;;;;0.00;0.00;;;17.10;71.20;;;;;;5050070;28;20037;-67
2022/07/23 07:18:34;;;;;;;0.00;0.00;;;17.10;71.60;;;;;;5049956;28;20099;-67
2022/07/23 07:20:59;;;;;;;0.00;0.00;;;17.10;71.70;;;;;;5050021;28;20041;-67
2022/07/23 07:23:25;;;;;;;0.00;0.00;;;17.20;70.70;;;;;;5052171;28;20090;-67
2022/07/23 07:25:51;;;;;;;0.00;0.00;;;17.30;71.20;;;;;;5051958;28;20037;-67
2022/07/23 07:28:16;;;;;;;0.00;0.00;;;17.30;71.40;;;;;;5047383;28;20481;-66
2022/07/23 07:30:42;;;;;;;0.00;0.00;;;17.40;71.60;;;;;;5049537;28;20094;-67
2022/07/23 07:33:07;;;;;;;0.00;0.00;;;17.40;70.50;;;;;;5049982;28;20919;-67
2022/07/23 07:35:33;;;;;;;0.00;0.00;;;17.40;70.30;;;;;;5049138;28;20094;-67
2022/07/23 07:38:00;;;;;;;0.30;0.30;;;17.40;69.80;;;;;;5044194;28;20112;-67
2022/07/23 07:40:26;;;;;;;0.00;0.00;;;17.40;70.10;;;;;;5044192;28;20053;-67
2022/07/23 07:42:53;;;;;;;0.00;0.00;;;17.40;70.20;;;;;;5045684;28;20060;-66
2022/07/23 07:45:23;;;;;;;0.00;0.00;;;17.50;70.50;;;;;;5047495;28;21612;-66
2022/07/23 07:47:50;;;;;;;0.00;0.00;;;17.50;71.40;;;;;;5052060;28;20116;-66
2022/07/23 07:50:16;;;;;;;0.00;0.00;;;17.50;70.40;;;;;;5048769;28;20051;-67
2022/07/23 07:52:42;;;;;;;0.00;0.00;;;17.50;69.30;;;;;;5049391;28;20401;-66
2022/07/23 07:55:09;;;;;;;0.00;0.00;;;17.50;69.70;;;;;;5043206;28;20110;-67
2022/07/23 07:57:36;;;;;;;0.00;0.00;;;17.50;70.20;;;;;;5048515;28;20048;-67
2022/07/23 08:00:01;;;;;;;0.00;0.00;;;17.50;70.20;;;;;;5051611;28;20665;-67
2022/07/23 08:02:27;;;;;;;0.00;0.00;;;17.50;70.00;;;;;;5049310;28;20048;-67
2022/07/23 08:04:53;;;;;;;0.00;0.00;;;17.50;70.50;;;;;;5048440;28;20045;-67
2022/07/23 08:07:19;;;;;;;0.00;0.00;;;17.50;69.80;;;;;;5023617;28;20052;-67
2022/07/23 08:09:45;;;;;;;0.00;0.00;;;17.50;69.80;;;;;;5044988;28;20044;-67
2022/07/23 08:12:10;;;;;;;0.00;0.00;;;17.60;70.20;;;;;;5030929;28;20049;-67
2022/07/23 08:14:37;;;;;;;0.55;0.55;;;17.40;68.70;;;;;;5048884;28;20477;-68
2022/07/23 08:17:03;;;;;;;0.00;0.00;;;17.50;69.30;;;;;;5049809;28;20140;-68
2022/07/23 08:19:30;;;;;;;0.00;0.00;;;17.50;68.80;;;;;;5049705;28;20136;-67
2022/07/23 08:21:55;;;;;;;0.00;0.00;;;17.50;68.60;;;;;;5048899;28;20052;-68
2022/07/23 08:24:21;;;;;;;0.00;0.00;;;17.50;67.10;;;;;;5045571;28;20044;-65
2022/07/23 08:26:47;;;;;;;0.00;0.00;;;17.60;66.80;;;;;;5030664;28;20521;-65
2022/07/23 08:29:12;;;;;;;0.00;0.00;;;17.50;67.40;;;;;;5048342;28;20049;-66
2022/07/23 08:31:40;;;;;;;0.00;0.00;;;17.50;68.60;;;;;;5038331;28;20033;-65
2022/07/23 08:34:05;;;;;;;0.00;0.00;;;17.60;68.80;;;;;;5012747;28;20040;-65
2022/07/23 08:36:32;;;;;;;0.00;0.00;;;17.50;68.60;;;;;;5042129;28;20115;-66
2022/07/23 08:38:59;;;;;;;0.00;0.00;;;17.60;68.30;;;;;;5035887;28;20052;-66
2022/07/23 08:41:25;;;;;;;0.00;0.00;;;17.60;68.80;;;;;;5046107;28;20450;-65
2022/07/23 08:43:52;;;;;;;0.00;0.00;;;17.60;69.00;;;;;;5029770;28;20183;-66
2022/07/23 08:46:19;;;;;;;0.00;0.00;;;17.60;69.40;;;;;;5047747;28;20075;-65
2022/07/23 08:48:48;;;;;;;0.00;0.00;;;17.70;69.20;;;;;;5047441;28;20059;-65
2022/07/23 08:51:14;;;;;;;0.00;0.00;;;17.60;68.60;;;;;;5047130;28;20053;-66
2022/07/23 08:53:41;;;;;;;0.00;0.00;;;17.70;69.10;;;;;;5026858;28;20059;-67
2022/07/23 08:56:07;;;;;;;0.00;0.00;;;17.70;69.20;;;;;;5048031;28;20045;-67
2022/07/23 08:58:33;;;;;;;0.00;0.00;;;17.80;69.50;;;;;;5048006;28;20048;-67
2022/07/23 09:01:00;;;;;;;0.00;0.00;;;17.80;69.80;;;;;;5043594;28;20045;-67
2022/07/23 09:03:32;;;;;;;0.00;0.00;;;17.80;69.30;;;;;;5046931;28;20048;-67
2022/07/23 09:05:59;;;;;;;0.00;0.00;;;17.80;69.80;;;;;;5046358;28;20057;-67
2022/07/23 09:08:34;;;;;;;0.00;0.00;;;17.80;69.40;;;;;;5039230;28;20060;-67
2022/07/23 09:11:01;;;;;;;0.00;0.00;;;17.90;69.90;;;;;;5032342;28;20084;-66
2022/07/23 09:13:43;;;;;;;0.00;0.00;;;18.00;69.90;;;;;;5048750;28;20421;-66
2022/07/23 09:16:13;;;;;;;0.00;0.00;;;18.00;69.40;;;;;;5044723;28;20045;-66
2022/07/23 09:18:41;;;;;;;0.00;0.00;;;18.00;69.10;;;;;;5044636;28;20052;-66
2022/07/23 09:21:14;;;;;;;0.00;0.00;;;18.00;69.60;;;;;;5048757;28;20059;-66
2022/07/23 09:23:48;;;;;;;0.00;0.00;;;18.00;69.10;;;;;;5043791;28;20413;-66
2022/07/23 09:26:18;;;;;;;0.00;0.00;;;18.00;69.40;;;;;;5043335;28;20067;-66
2022/07/23 09:28:51;;;;;;;0.00;0.00;;;17.90;69.10;;;;;;5045489;28;20143;-66
2022/07/23 09:31:17;;;;;;;0.00;0.00;;;18.00;69.90;;;;;;5049150;28;20080;-66
2022/07/23 09:33:43;;;;;;;0.35;0.35;;;18.00;69.60;;;;;;5031673;28;20102;-67
2022/07/23 09:36:09;;;;;;;0.00;0.00;;;18.00;69.90;;;;;;5052020;28;20760;-66
2022/07/23 09:38:47;;;;;;;0.00;0.00;;;18.10;70.10;;;;;;5051436;28;20508;-68
2022/07/23 09:41:13;;;;;;;0.00;0.00;;;18.20;68.90;;;;;;5047516;28;20053;-67
2022/07/23 09:43:38;;;;;;;0.00;0.00;;;18.30;69.30;;;;;;5018827;28;20513;-67
2022/07/23 09:46:25;;;;;;;0.00;0.00;;;18.40;69.50;;;;;;5046913;28;20041;-67
2022/07/23 09:48:58;;;;;;;0.00;0.00;;;18.60;70.00;;;;;;5047679;28;20069;-68
2022/07/23 09:51:42;;;;;;;0.00;0.00;;;18.60;69.60;;;;;;5046917;28;20044;-67
2022/07/23 09:54:28;;;;;;;0.00;0.00;;;18.70;69.30;;;;;;5047349;28;20048;-69
2022/07/23 09:56:55;;;;;;;0.00;0.00;;;18.90;69.30;;;;;;5028388;28;20053;-67
2022/07/23 09:59:27;;;;;;;0.00;0.00;;;19.00;68.80;;;;;;5045321;28;20037;-68
2022/07/23 10:01:56;;;;;;;0.00;0.00;;;19.20;68.50;;;;;;5043085;28;20041;-68
2022/07/23 10:04:23;;;;;;;0.00;0.00;;;19.10;67.50;;;;;;5050908;28;20390;-68
2022/07/23 10:06:53;;;;;;;0.00;0.00;;;19.10;67.40;;;;;;5050922;28;20091;-68
2022/07/23 10:09:24;;;;;;;0.00;0.00;;;19.00;68.00;;;;;;5051567;28;20041;-68
2022/07/23 10:11:50;;;;;;;;;;;18.90;67.90;;;;;;5051716;28;20044;-69
2022/07/23 10:14:16;;;;;;;0.00;0.00;;;19.00;68.60;;;;;;5052421;28;19921;-68
2022/07/23 10:16:42;;;;;;;0.00;0.00;;;19.00;67.70;;;;;;5051670;28;20076;-68
2022/07/23 10:19:08;;;;;;;0.00;0.00;;;19.10;68.30;;;;;;5033080;28;20045;-68
2022/07/23 10:21:52;;;;;;;0.00;0.00;;;19.20;68.20;;;;;;5050197;28;20044;-67
2022/07/23 10:24:23;;;;;;;0.00;0.00;;;19.20;67.90;;;;;;5051511;28;20063;-68
2022/07/23 10:27:05;;;;;;;0.00;0.00;;;19.10;67.50;;;;;;5046859;28;20053;-67
2022/07/23 10:29:50;;;;;;;0.00;0.00;;;19.10;68.40;;;;;;5043024;28;20091;-68
2022/07/23 10:33:04;;;;;;;0.00;0.00;;;19.00;67.20;;;;;;5050480;28;20045;-67
2022/07/23 10:35:50;;;;;;;0.00;0.00;;;19.00;67.30;;;;;;4977133;28;20062;-67
2022/07/23 10:38:16;;;;;;;0.00;0.00;;;19.00;68.20;;;;;;5041198;28;20048;-67
2022/07/23 10:40:58;;;;;;;0.00;0.00;;;19.10;68.60;;;;;;5051252;28;20052;-68
2022/07/23 10:43:23;;;;;;;0.00;0.00;;;19.20;68.10;;;;;;5048206;28;20093;-67
2022/07/23 10:45:49;;;;;;;0.00;0.00;;;19.30;68.00;;;;;;5032287;28;20072;-68
2022/07/23 10:48:20;;;;;;;0.00;0.00;;;19.40;68.00;;;;;;5050926;28;20398;-67
2022/07/23 10:51:13;;;;;;;0.00;0.00;;;19.40;67.70;;;;;;5047857;28;20046;-67
2022/07/23 10:53:50;;;;;;;0.00;0.00;;;19.40;66.90;;;;;;5043991;28;20570;-67
2022/07/23 10:56:35;;;;;;;0.00;0.00;;;19.40;66.90;;;;;;5050381;28;20041;-67
2022/07/23 10:59:04;;;;;;;0.00;0.00;;;19.50;66.60;;;;;;5036490;28;20064;-67
2022/07/23 11:01:37;;;;;;;0.00;0.00;;;19.50;66.40;;;;;;5049053;28;20494;-67
2022/07/23 11:04:07;;;;;;;0.00;0.00;;;19.60;67.20;;;;;;5033167;28;20056;-67
2022/07/23 11:06:50;;;;;;;0.00;0.00;;;19.70;67.40;;;;;;5045833;28;20084;-67
2022/07/23 11:09:29;;;;;;;0.00;0.00;;;19.80;67.50;;;;;;5049234;28;20044;-67
2022/07/23 11:12:13;;;;;;;0.00;0.00;;;19.80;66.70;;;;;;5049370;28;20044;-68
2022/07/23 11:14:57;;;;;;;0.00;0.00;;;19.80;65.80;;;;;;5050396;28;20411;-68
2022/07/23 11:17:24;;;;;;;0.00;0.00;;;19.90;66.70;;;;;;5038291;28;20098;-68
2022/07/23 11:20:09;;;;;;;0.00;0.00;;;19.90;65.80;;;;;;5050032;28;20127;-68
2022/07/23 11:22:39;;;;;;;0.00;0.00;;;20.00;65.30;;;;;;5048621;28;20041;-70
2022/07/23 11:25:05;;;;;;;0.00;0.00;;;20.20;66.20;;;;;;5049548;28;20584;-66
2022/07/23 11:27:40;;;;;;;0.00;0.00;;;20.30;65.70;;;;;;5029853;28;20078;-69
2022/07/23 11:30:30;;;;;;;0.03;0.03;;;20.30;64.90;;;;;;5049702;28;20168;-68
2022/07/23 11:33:08;;;;;;;0.10;0.08;;;20.30;65.20;;;;;;5042130;28;20098;-68
2022/07/23 11:35:36;;;;;;;0.00;0.00;;;20.30;65.60;;;;;;5039281;28;20045;-69
2022/07/23 11:38:15;;;;;;;0.00;0.00;;;20.10;65.50;;;;;;5043544;28;20091;-69
2022/07/23 11:40:43;;;;;;;0.00;0.00;;;20.20;67.10;;;;;;5037895;28;20518;-69
2022/07/23 11:43:10;;;;;;;0.00;0.00;;;20.40;66.90;;;;;;5032286;28;20048;-69
2022/07/23 11:45:41;;;;;;;0.00;0.00;;;20.50;66.20;;;;;;5049287;28;20094;-69
2022/07/23 11:48:09;;;;;;;0.00;0.00;;;20.50;66.20;;;;;;5049953;28;20440;-69
2022/07/23 11:50:36;;;;;;;0.00;0.00;;;20.50;65.40;;;;;;5041421;28;20053;-69
2022/07/23 11:53:02;;;;;;;0.00;0.00;;;20.50;66.20;;;;;;5028877;28;20037;-69
2022/07/23 11:55:28;;;;;;;0.00;0.00;;;20.50;65.70;;;;;;5048914;28;20116;-68
2022/07/23 11:57:55;;;;;;;0.00;0.00;;;20.60;65.10;;;;;;5039042;28;20116;-68
2022/07/23 12:00:25;;;;;;;0.00;0.00;;;20.50;64.70;;;;;;5043773;28;20591;-68
2022/07/23 12:02:54;;;;;;;0.00;0.00;;;20.60;65.20;;;;;;5048287;28;20111;-68
2022/07/23 12:05:21;;;;;;;0.00;0.00;;;20.70;64.70;;;;;;5054100;28;20065;-68
2022/07/23 12:07:49;;;;;;;0.00;0.00;;;20.30;65.50;;;;;;5064633;28;20081;-69
2022/07/23 12:10:15;;;;;;;0.00;0.00;;;20.50;66.30;;;;;;5048964;28;20453;-69
2022/07/23 12:12:43;;;;;;;0.00;0.00;;;20.70;66.20;;;;;;5031723;28;20064;-68
2022/07/23 12:15:11;;;;;;;0.00;0.00;;;20.80;64.90;;;;;;5031207;28;20045;-70
2022/07/23 12:17:39;;;;;;;0.00;0.00;;;20.90;64.70;;;;;;5048348;28;20048;-69
2022/07/23 12:20:07;;;;;;;0.20;0.20;;;20.70;64.70;;;;;;5066250;28;20037;-68
2022/07/23 12:22:36;;;;;;;0.00;0.00;;;20.60;64.10;;;;;;5056616;28;20545;-69
2022/07/23 12:25:12;;;;;;;0.98;0.90;;;20.60;65.10;;;;;;5057653;28;20123;-69
2022/07/23 12:27:38;;;;;;;0.00;0.00;;;20.60;65.50;;;;;;5051447;28;20079;-68
2022/07/23 12:30:27;;;;;;;0.00;0.00;;;20.80;67.90;;;;;;5046926;28;20947;-69
2022/07/23 12:32:54;;;;;;;0.00;0.00;;;20.90;65.50;;;;;;5037063;28;20183;-68
2022/07/23 12:35:22;;;;;;;0.00;0.00;;;21.10;65.90;;;;;;5033679;28;20045;-68
2022/07/23 12:37:52;;;;;;;0.00;0.00;;;21.20;63.30;;;;;;5043548;28;20055;-69
2022/07/23 12:40:30;;;;;;;0.00;0.00;;;21.20;64.70;;;;;;5048847;28;20140;-69
2022/07/23 12:42:58;;;;;;;0.00;0.00;;;21.20;63.80;;;;;;5048797;28;20081;-69
2022/07/23 12:45:25;;;;;;;0.00;0.00;;;21.10;64.20;;;;;;5048955;28;20766;-69
2022/07/23 12:48:03;;;;;;;0.22;0.22;;;21.10;63.90;;;;;;5048839;28;20099;-69
2022/07/23 12:50:43;;;;;;;0.00;0.00;;;21.10;63.20;;;;;;5048842;28;20045;-68